createdAt,value
2018-02-21T00:01:06.700Z,27.03
2018-02-21T00:03:34.156Z,23.63
2018-02-21T00:06:01.596Z,25.90
2018-02-21T00:08:29.072Z,28.20
2018-02-21T00:10:56.521Z,26.60
2018-02-21T00:13:23.947Z,27.73
2018-02-21T00:15:51.453Z,25.80
2018-02-21T00:18:19.101Z,28.80
2018-02-21T00:20:46.558Z,26.60
2018-02-21T00:23:14.012Z,28.90
2018-02-21T00:25:41.463Z,28.73
2018-02-21T00:28:08.928Z,28.37
2018-02-21T00:30:36.368Z,27.47
2018-02-21T00:33:03.814Z,27.97
2018-02-21T00:35:31.958Z,28.00
2018-02-21T00:38:00.160Z,26.10
2018-02-21T00:40:27.597Z,28.53
2018-02-21T00:42:55.027Z,28.10
2018-02-21T00:45:22.552Z,31.13
2018-02-21T00:47:50.022Z,31.07
2018-02-21T00:50:17.568Z,31.67
2018-02-21T00:52:45.008Z,30.30
2018-02-21T00:55:12.444Z,30.60
2018-02-21T00:57:39.892Z,32.97
2018-02-21T01:00:08.123Z,32.87
2018-02-21T01:02:35.561Z,31.23
2018-02-21T01:05:03.027Z,30.57
2018-02-21T01:07:30.463Z,32.20
2018-02-21T01:09:57.915Z,31.87
2018-02-21T01:12:25.355Z,32.30
2018-02-21T01:14:53.555Z,33.40
2018-02-21T01:17:21.042Z,31.50
2018-02-21T01:19:48.480Z,31.00
2018-02-21T01:22:15.922Z,31.90
2018-02-21T01:24:43.368Z,31.40
2018-02-21T01:27:10.866Z,31.77
2018-02-21T01:29:38.305Z,32.37
2018-02-21T01:32:05.739Z,31.90
2018-02-21T01:34:33.236Z,33.37
2018-02-21T01:37:00.663Z,33.70
2018-02-21T01:39:28.153Z,32.17
2018-02-21T01:41:55.578Z,32.37
2018-02-21T01:44:23.022Z,32.30
2018-02-21T01:46:51.226Z,34.10
2018-02-21T01:49:18.692Z,34.03
2018-02-21T01:51:46.139Z,32.53
2018-02-21T01:54:13.600Z,32.87
2018-02-21T01:56:41.166Z,32.90
2018-02-21T01:59:08.592Z,33.10
2018-02-21T02:01:36.078Z,31.40
2018-02-21T02:04:03.635Z,35.50
2018-02-21T02:06:31.611Z,35.30
2018-02-21T02:08:59.048Z,34.50
2018-02-21T02:11:26.491Z,32.23
2018-02-21T02:13:53.932Z,34.07
2018-02-21T02:16:21.363Z,34.90
2018-02-21T02:18:49.617Z,36.40
2018-02-21T02:21:17.058Z,34.13
2018-02-21T02:23:44.517Z,33.40
2018-02-21T02:26:11.971Z,32.40
2018-02-21T02:28:39.425Z,35.30
2018-02-21T02:31:06.910Z,33.20
2018-02-21T02:33:34.449Z,34.27
2018-02-21T02:36:01.888Z,35.47
2018-02-21T02:38:39.276Z,34.10
2018-02-21T02:41:06.751Z,34.80
2018-02-21T02:43:34.307Z,33.70
2018-02-21T02:46:01.775Z,34.23
2018-02-21T02:48:29.347Z,34.77
2018-02-21T02:50:56.888Z,36.47
2018-02-21T02:53:24.346Z,31.77
2018-02-21T02:55:51.795Z,34.87
2018-02-21T02:58:19.261Z,33.80
2018-02-21T03:00:46.719Z,32.53
2018-02-21T03:03:14.181Z,32.77
2018-02-21T03:05:41.624Z,30.00
2018-02-21T03:08:09.085Z,33.13
2018-02-21T03:10:36.548Z,32.57
2018-02-21T03:13:04.100Z,30.60
2018-02-21T03:15:31.551Z,31.03
2018-02-21T03:17:58.998Z,32.07
2018-02-21T03:20:26.432Z,31.37
2018-02-21T03:22:53.927Z,31.80
2018-02-21T03:25:21.388Z,31.13
2018-02-21T03:27:48.851Z,31.97
2018-02-21T03:30:16.406Z,31.70
2018-02-21T03:32:43.855Z,32.07
2018-02-21T03:35:11.311Z,30.63
2018-02-21T03:37:38.755Z,29.87
2018-02-21T03:40:06.191Z,29.63
2018-02-21T03:42:33.636Z,31.00
2018-02-21T03:45:01.136Z,29.90
2018-02-21T03:47:28.572Z,31.63
2018-02-21T03:49:56.124Z,30.97
2018-02-21T03:52:23.612Z,31.23
2018-02-21T03:54:51.080Z,29.20
2018-02-21T03:57:18.641Z,28.40
2018-02-21T03:59:46.184Z,27.40
2018-02-21T04:02:13.643Z,30.30
2018-02-21T04:04:41.103Z,27.17
2018-02-21T04:07:08.572Z,31.97
2018-02-21T04:09:36.115Z,30.93
2018-02-21T04:12:03.553Z,28.87
2018-02-21T04:14:31.032Z,28.70
2018-02-21T04:16:58.470Z,27.90
2018-02-21T04:19:25.926Z,28.10
2018-02-21T04:21:53.400Z,29.50
2018-02-21T04:24:20.873Z,28.20
2018-02-21T04:26:48.432Z,29.83
2018-02-21T04:29:15.998Z,28.73
2018-02-21T04:31:43.440Z,29.60
2018-02-21T04:34:10.874Z,29.80
2018-02-21T04:36:38.329Z,30.53
2018-02-21T04:39:05.755Z,29.27
2018-02-21T04:41:34.695Z,29.73
2018-02-21T04:44:02.139Z,29.37
2018-02-21T04:46:29.576Z,30.60
2018-02-21T04:48:57.064Z,29.13
2018-02-21T04:51:24.520Z,29.93
2018-02-21T04:53:51.947Z,29.57
2018-02-21T04:56:38.092Z,30.63
2018-02-21T04:59:07.464Z,28.93
2018-02-21T05:01:34.920Z,29.50
2018-02-21T05:04:02.394Z,29.67
2018-02-21T05:06:29.816Z,29.10
2018-02-21T05:08:57.306Z,30.30
2018-02-21T05:11:25.692Z,29.30
2018-02-21T05:13:53.148Z,28.93
2018-02-21T05:16:20.699Z,28.80
2018-02-21T05:18:48.156Z,29.80
2018-02-21T05:21:15.608Z,31.17
2018-02-21T05:23:43.087Z,30.23
2018-02-21T05:26:10.636Z,29.40
2018-02-21T05:28:38.084Z,30.70
2018-02-21T05:31:05.540Z,28.63
2018-02-21T05:33:33.013Z,28.80
2018-02-21T05:36:00.443Z,30.10
2018-02-21T05:38:28.133Z,29.17
2018-02-21T05:40:55.679Z,32.40
2018-02-21T05:43:23.131Z,28.60
2018-02-21T05:45:50.900Z,29.70
2018-02-21T05:48:18.356Z,29.37
2018-02-21T05:50:45.791Z,30.53
2018-02-21T05:53:13.229Z,29.87
2018-02-21T05:55:40.728Z,30.97
2018-02-21T05:58:08.168Z,31.03
2018-02-21T06:00:35.610Z,30.73
2018-02-21T06:03:03.071Z,30.40
2018-02-21T06:05:30.554Z,31.23
2018-02-21T06:07:58.014Z,29.17
2018-02-21T06:10:25.472Z,28.30
2018-02-21T06:12:52.897Z,30.67
2018-02-21T06:15:20.390Z,26.53
2018-02-21T06:17:47.825Z,30.20
2018-02-21T06:20:15.372Z,27.97
2018-02-21T06:22:42.852Z,28.20
2018-02-21T06:25:10.307Z,28.67
2018-02-21T06:27:37.775Z,27.90
2018-02-21T06:30:05.223Z,29.67
2018-02-21T06:32:32.871Z,28.90
2018-02-21T06:35:00.852Z,30.00
2018-02-21T06:37:28.675Z,27.33
2018-02-21T06:39:56.179Z,30.33
2018-02-21T06:42:23.727Z,27.50
2018-02-21T06:44:51.173Z,28.10
2018-02-21T06:47:18.599Z,26.70
2018-02-21T06:49:46.929Z,27.60
2018-02-21T06:52:14.383Z,27.60
2018-02-21T06:54:41.947Z,27.07
2018-02-21T06:57:09.443Z,26.90
2018-02-21T06:59:37.675Z,28.50
2018-02-21T07:02:05.233Z,26.87
2018-02-21T07:04:32.665Z,28.90
2018-02-21T07:07:00.109Z,28.17
2018-02-21T07:09:27.603Z,27.87
2018-02-21T07:11:55.570Z,27.47
2018-02-21T07:14:23.008Z,26.20
2018-02-21T07:16:50.444Z,28.90
2018-02-21T07:19:18.690Z,28.67
2018-02-21T07:21:46.163Z,27.93
2018-02-21T07:24:14.377Z,29.57
2018-02-21T07:26:41.859Z,27.17
2018-02-21T07:29:09.315Z,29.17
2018-02-21T07:31:37.492Z,27.63
2018-02-21T07:34:04.932Z,29.10
2018-02-21T07:36:32.369Z,26.97
2018-02-21T07:38:59.808Z,28.90
2018-02-21T07:41:27.243Z,26.67
2018-02-21T07:43:55.452Z,29.30
2018-02-21T07:46:22.896Z,28.30
2018-02-21T07:48:50.335Z,27.10
2018-02-21T07:51:18.540Z,29.17
2018-02-21T07:53:45.983Z,27.50
2018-02-21T07:56:13.480Z,26.33
2018-02-21T07:58:41.836Z,26.97
2018-02-21T08:01:09.521Z,26.10
2018-02-21T08:03:36.967Z,29.30
2018-02-21T08:06:04.396Z,28.40
2018-02-21T08:08:31.895Z,26.93
2018-02-21T08:10:59.551Z,27.03
2018-02-21T08:13:26.992Z,29.90
2018-02-21T08:15:54.440Z,28.50
2018-02-21T08:18:21.872Z,25.87
2018-02-21T08:20:50.153Z,26.43
2018-02-21T08:23:17.555Z,26.87
2018-02-21T08:25:45.016Z,28.00
2018-02-21T08:28:12.531Z,26.30
2018-02-21T08:30:39.911Z,27.27
2018-02-21T08:33:07.386Z,25.37
2018-02-21T08:35:35.182Z,25.40
2018-02-21T08:38:02.631Z,26.47
2018-02-21T08:40:30.675Z,26.37
2018-02-21T08:42:58.684Z,28.43
2018-02-21T08:45:26.924Z,25.63
2018-02-21T08:47:54.487Z,25.77
2018-02-21T08:50:21.937Z,27.30
2018-02-21T08:52:49.369Z,25.47
2018-02-21T08:55:16.848Z,25.37
2018-02-21T08:57:44.308Z,24.93
2018-02-21T09:00:11.744Z,26.53
2018-02-21T09:02:39.196Z,24.70
2018-02-21T09:05:06.620Z,25.20
2018-02-21T09:07:34.832Z,24.33
2018-02-21T09:10:02.268Z,33.73
2018-02-21T09:12:30.275Z,21.53
2018-02-21T09:14:57.715Z,21.60
2018-02-21T09:17:25.176Z,24.27
2018-02-21T09:19:52.611Z,23.30
2018-02-21T09:22:20.104Z,21.67
2018-02-21T09:24:47.554Z,21.60
2018-02-21T09:27:15.020Z,21.70
2018-02-21T09:29:42.471Z,20.57
2018-02-21T09:32:09.943Z,22.70
2018-02-21T09:34:37.383Z,20.70
2018-02-21T09:37:04.843Z,21.13
2018-02-21T09:39:33.302Z,22.57
2018-02-21T09:42:00.743Z,21.27
2018-02-21T09:44:28.183Z,20.73
2018-02-21T09:46:56.448Z,22.37
2018-02-21T09:49:23.988Z,21.50
2018-02-21T09:51:52.967Z,22.27
2018-02-21T09:54:20.400Z,21.30
2018-02-21T09:56:47.892Z,21.60
2018-02-21T09:59:15.347Z,22.90
2018-02-21T10:01:42.900Z,22.40
2018-02-21T10:04:10.405Z,22.80
2018-02-21T10:06:37.791Z,23.13
2018-02-21T10:09:05.267Z,23.00
2018-02-21T10:11:32.703Z,21.90
2018-02-21T10:14:00.143Z,23.60
2018-02-21T10:16:27.640Z,21.10
2018-02-21T10:18:55.091Z,22.33
2018-02-21T10:21:22.528Z,21.07
2018-02-21T10:23:49.967Z,20.10
2018-02-21T10:26:17.405Z,19.90
2018-02-21T10:28:45.613Z,20.13
2018-02-21T10:31:13.093Z,21.40
2018-02-21T10:33:40.553Z,20.70
2018-02-21T10:36:08.012Z,20.90
2018-02-21T10:38:35.502Z,20.07
2018-02-21T10:41:02.888Z,19.67
2018-02-21T10:43:30.375Z,19.57
2018-02-21T10:45:57.939Z,19.77
2018-02-21T10:48:25.395Z,18.90
2018-02-21T10:50:53.367Z,18.07
2018-02-21T10:53:20.819Z,16.00
2018-02-21T10:55:48.380Z,18.53
2018-02-21T10:58:15.879Z,17.60
2018-02-21T11:00:49.863Z,16.70
2018-02-21T11:03:17.295Z,18.40
2018-02-21T11:05:44.736Z,17.60
2018-02-21T11:08:12.180Z,16.70
2018-02-21T11:10:39.675Z,16.13
2018-02-21T11:13:07.139Z,19.33
2018-02-21T11:15:34.567Z,20.03
2018-02-21T11:18:02.017Z,19.47
2018-02-21T11:20:29.500Z,20.37
2018-02-21T11:22:56.947Z,20.57
2018-02-21T11:25:24.391Z,18.33
2018-02-21T11:27:51.848Z,17.67
2018-02-21T11:30:19.283Z,19.07
2018-02-21T11:32:46.720Z,20.90
2018-02-21T11:35:14.938Z,18.27
2018-02-21T11:37:42.383Z,18.80
2018-02-21T11:40:09.872Z,16.13
2018-02-21T11:42:37.331Z,17.30
2018-02-21T11:45:04.769Z,16.97
2018-02-21T11:47:32.244Z,16.50
2018-02-21T11:49:59.680Z,18.27
2018-02-21T11:52:27.155Z,16.50
2018-02-21T11:54:54.601Z,16.60
2018-02-21T11:57:22.051Z,18.77
2018-02-21T11:59:49.496Z,18.47
2018-02-21T12:02:16.984Z,18.20
2018-02-21T12:04:44.685Z,19.50
2018-02-21T12:07:12.209Z,18.70
2018-02-21T12:09:39.667Z,17.23
2018-02-21T12:12:07.224Z,17.60
2018-02-21T12:14:34.659Z,17.73
2018-02-21T12:17:02.099Z,17.30
2018-02-21T12:19:29.543Z,17.90
2018-02-21T12:21:57.771Z,17.90
2018-02-21T12:24:25.228Z,17.37
2018-02-21T12:26:52.676Z,17.53
2018-02-21T12:29:20.152Z,17.20
2018-02-21T12:31:49.171Z,16.40
2018-02-21T12:34:17.391Z,18.10
2018-02-21T12:36:44.837Z,15.53
2018-02-21T12:39:17.884Z,16.83
2018-02-21T12:41:46.097Z,15.80
2018-02-21T12:44:13.614Z,17.03
2018-02-21T12:46:41.139Z,14.13
2018-02-21T12:49:08.595Z,14.83
2018-02-21T12:51:36.040Z,14.23
2018-02-21T12:54:03.496Z,12.57
2018-02-21T12:56:30.944Z,13.40
2018-02-21T12:58:58.423Z,11.80
2018-02-21T13:01:25.863Z,11.50
2018-02-21T13:03:53.313Z,12.60
2018-02-21T13:06:20.757Z,13.00
2018-02-21T13:08:48.252Z,12.83
2018-02-21T13:11:15.712Z,14.50
2018-02-21T13:13:43.272Z,12.90
2018-02-21T13:16:10.713Z,14.03
2018-02-21T13:18:38.157Z,13.20
2018-02-21T13:21:05.639Z,15.00
2018-02-21T13:23:33.095Z,12.87
2018-02-21T13:26:00.648Z,14.13
2018-02-21T13:28:28.260Z,13.40
2018-02-21T13:30:56.467Z,14.70
2018-02-21T13:33:23.909Z,14.07
2018-02-21T13:35:51.419Z,14.37
2018-02-21T13:38:18.963Z,14.77
2018-02-21T13:40:46.420Z,13.60
2018-02-21T13:43:13.879Z,12.97
2018-02-21T13:45:41.326Z,14.17
2018-02-21T13:48:08.811Z,14.67
2018-02-21T13:50:36.272Z,15.33
2018-02-21T13:53:03.735Z,12.60
2018-02-21T13:55:31.283Z,13.87
2018-02-21T13:57:59.500Z,13.57
2018-02-21T14:00:26.939Z,13.67
2018-02-21T14:02:55.172Z,13.67
2018-02-21T14:05:22.620Z,13.73
2018-02-21T14:07:50.080Z,13.67
2018-02-21T14:10:17.516Z,11.77
2018-02-21T14:12:44.992Z,13.73
2018-02-21T14:15:12.435Z,13.47
2018-02-21T14:17:39.911Z,12.67
2018-02-21T14:20:07.379Z,13.20
2018-02-21T14:22:34.815Z,13.20
2018-02-21T14:25:03.009Z,13.17
2018-02-21T14:27:30.551Z,13.07
2018-02-21T14:29:58.012Z,12.30
2018-02-21T14:32:25.482Z,13.17
2018-02-21T14:34:53.032Z,12.03
2018-02-21T14:37:20.484Z,12.30
2018-02-21T14:39:47.939Z,11.97
2018-02-21T14:42:15.380Z,13.53
2018-02-21T14:44:43.733Z,12.20
2018-02-21T14:47:11.244Z,13.83
2018-02-21T14:49:38.683Z,13.20
2018-02-21T14:52:06.356Z,13.10
2018-02-21T14:54:33.812Z,12.87
2018-02-21T14:57:01.367Z,13.23
2018-02-21T14:59:28.816Z,13.10
2018-02-21T15:01:56.296Z,12.83
2018-02-21T15:04:23.844Z,13.93
2018-02-21T15:06:51.400Z,14.67
2018-02-21T15:09:18.848Z,14.00
2018-02-21T15:11:46.291Z,13.73
2018-02-21T15:14:13.772Z,14.87
2018-02-21T15:16:41.212Z,13.50
2018-02-21T15:19:08.664Z,13.27
2018-02-21T15:21:36.104Z,13.53
2018-02-21T15:24:03.604Z,12.60
2018-02-21T15:26:31.164Z,15.43
2018-02-21T15:28:58.612Z,15.90
2018-02-21T15:31:26.072Z,13.73
2018-02-21T15:33:53.532Z,14.70
2018-02-21T15:36:21.088Z,14.77
2018-02-21T15:38:48.576Z,14.87
2018-02-21T15:41:16.094Z,13.47
2018-02-21T15:43:43.533Z,14.33
2018-02-21T15:46:11.022Z,15.30
2018-02-21T15:48:38.468Z,16.83
2018-02-21T15:51:05.899Z,15.80
2018-02-21T15:53:33.345Z,15.70
2018-02-21T15:56:00.792Z,15.83
2018-02-21T15:58:29.016Z,15.77
2018-02-21T16:00:56.459Z,15.30
2018-02-21T16:03:23.934Z,14.43
2018-02-21T16:05:51.411Z,15.10
2018-02-21T16:08:18.855Z,14.00
2018-02-21T16:10:46.407Z,14.20
2018-02-21T16:13:13.843Z,14.10
2018-02-21T16:15:41.797Z,15.10
2018-02-21T16:18:09.231Z,13.90
2018-02-21T16:20:37.462Z,14.27
2018-02-21T16:23:04.916Z,13.63
2018-02-21T16:25:32.387Z,14.73
2018-02-21T16:27:59.844Z,14.10
2018-02-21T16:30:27.395Z,12.87
2018-02-21T16:32:54.847Z,14.20
2018-02-21T16:35:22.395Z,13.13
2018-02-21T16:37:49.875Z,14.03
2018-02-21T16:40:17.316Z,12.90
2018-02-21T16:42:44.780Z,14.13
2018-02-21T16:45:12.236Z,14.60
2018-02-21T16:47:39.689Z,12.70
2018-02-21T16:50:07.148Z,14.43
2018-02-21T16:52:34.600Z,14.20
2018-02-21T16:55:02.039Z,11.97
2018-02-21T16:57:29.520Z,13.63
2018-02-21T16:59:56.979Z,13.37
2018-02-21T17:02:24.543Z,13.30
2018-02-21T17:04:51.993Z,13.77
2018-02-21T17:07:20.000Z,12.90
2018-02-21T17:09:48.203Z,12.50
2018-02-21T17:12:15.694Z,13.60
2018-02-21T17:14:43.252Z,12.80
2018-02-21T17:17:10.709Z,12.70
2018-02-21T17:19:38.167Z,12.90
2018-02-21T17:22:05.635Z,14.30
2018-02-21T17:24:33.079Z,11.90
2018-02-21T17:27:00.522Z,13.50
2018-02-21T17:29:27.968Z,12.40
2018-02-21T17:31:55.449Z,13.37
2018-02-21T17:34:22.915Z,14.67
2018-02-21T17:36:50.359Z,12.40
2018-02-21T17:39:17.823Z,13.90
2018-02-21T17:41:45.263Z,12.07
2018-02-21T17:44:12.733Z,13.30
2018-02-21T17:46:40.208Z,13.20
2018-02-21T17:49:07.648Z,12.93
2018-02-21T17:51:35.086Z,13.67
2018-02-21T17:54:02.515Z,13.13
2018-02-21T17:56:29.951Z,13.17
2018-02-21T17:58:58.151Z,12.60
2018-02-21T18:01:25.583Z,15.80
2018-02-21T18:03:53.783Z,19.10
2018-02-21T18:06:21.224Z,17.60
2018-02-21T18:08:49.440Z,12.32
2018-02-21T18:11:16.885Z,12.73
2018-02-21T18:13:44.327Z,12.53
2018-02-21T18:16:11.770Z,14.27
2018-02-21T18:18:39.992Z,12.90
2018-02-21T18:21:09.375Z,14.90
2018-02-21T18:23:36.820Z,14.30
2018-02-21T18:26:04.258Z,15.50
2018-02-21T18:28:32.468Z,14.93
2018-02-21T18:30:59.911Z,14.00
2018-02-21T18:33:27.351Z,19.87
2018-02-21T18:35:55.551Z,18.53
2018-02-21T18:38:22.982Z,20.17
2018-02-21T18:40:50.428Z,19.67
2018-02-21T18:43:18.639Z,18.80
2018-02-21T18:45:46.096Z,14.80
2018-02-21T18:48:13.532Z,14.57
2018-02-21T18:50:40.963Z,16.07
2018-02-21T18:53:09.272Z,18.70
2018-02-21T18:55:36.704Z,16.60
2018-02-21T18:58:04.916Z,14.00
2018-02-21T19:00:32.346Z,16.47
2018-02-21T19:02:59.811Z,17.73
2018-02-21T19:05:27.240Z,16.50
2018-02-21T19:07:55.447Z,14.10
2018-02-21T19:10:22.888Z,17.23
2018-02-21T19:12:51.087Z,19.90
2018-02-21T19:15:18.523Z,24.60
2018-02-21T19:17:45.960Z,18.70
2018-02-21T19:20:14.163Z,16.70
2018-02-21T19:22:41.620Z,18.50
2018-02-21T19:25:09.052Z,22.83
2018-02-21T19:27:37.262Z,20.67
2018-02-21T19:30:04.699Z,17.53
2018-02-21T19:32:32.158Z,18.37
2018-02-21T19:34:59.592Z,19.30
2018-02-21T19:37:27.796Z,18.20
2018-02-21T19:39:55.240Z,20.53
2018-02-21T19:42:22.711Z,21.27
2018-02-21T19:44:50.887Z,24.87
2018-02-21T19:47:18.324Z,19.60
2018-02-21T19:49:46.524Z,18.17
2018-02-21T19:52:13.981Z,20.53
2018-02-21T19:54:41.414Z,19.20
2018-02-21T19:57:09.619Z,20.17
2018-02-21T19:59:37.059Z,20.07
2018-02-21T20:02:04.497Z,19.40
2018-02-21T20:04:32.711Z,19.80
2018-02-21T20:07:00.148Z,21.17
2018-02-21T20:09:27.592Z,24.30
2018-02-21T20:11:55.799Z,27.77
2018-02-21T20:14:23.325Z,21.57
2018-02-21T20:16:51.535Z,21.10
2018-02-21T20:19:18.991Z,22.07
2018-02-21T20:21:46.438Z,22.40
2018-02-21T20:24:13.871Z,21.70
2018-02-21T20:26:41.311Z,21.93
2018-02-21T20:29:09.512Z,20.90
2018-02-21T20:31:36.980Z,26.27
2018-02-21T20:34:04.460Z,23.57
2018-02-21T20:36:31.882Z,25.50
2018-02-21T20:38:59.315Z,22.30
2018-02-21T20:41:27.521Z,21.60
2018-02-21T20:43:54.959Z,22.57
2018-02-21T20:46:22.395Z,23.00
2018-02-21T20:48:50.619Z,20.87
2018-02-21T20:51:18.055Z,22.07
2018-02-21T20:53:45.848Z,21.30
2018-02-21T20:56:13.292Z,24.00
2018-02-21T20:58:40.720Z,20.47
2018-02-21T21:01:08.931Z,22.23
2018-02-21T21:03:36.364Z,23.10
2018-02-21T21:06:03.804Z,21.00
2018-02-21T21:08:32.004Z,22.43
2018-02-21T21:10:59.435Z,21.90
2018-02-21T21:13:26.878Z,19.77
2018-02-21T21:15:55.084Z,22.73
2018-02-21T21:18:22.531Z,22.63
2018-02-21T21:20:49.965Z,20.63
2018-02-21T21:23:18.168Z,21.20
2018-02-21T21:25:45.604Z,21.40
2018-02-21T21:28:13.809Z,21.57
2018-02-21T21:30:41.255Z,20.37
2018-02-21T21:33:08.691Z,20.10
2018-02-21T21:35:36.896Z,19.27
2018-02-21T21:38:04.344Z,20.93
2018-02-21T21:40:31.790Z,18.03
2018-02-21T21:42:59.304Z,18.40
2018-02-21T21:45:26.747Z,19.30
2018-02-21T21:47:54.199Z,20.20
2018-02-21T21:50:21.656Z,19.37
2018-02-21T21:52:49.115Z,19.07
2018-02-21T21:55:16.575Z,19.27
2018-02-21T21:57:44.021Z,19.40
2018-02-21T22:00:12.392Z,19.33
2018-02-21T22:02:39.873Z,18.20
2018-02-21T22:05:07.423Z,20.57
2018-02-21T22:07:34.867Z,19.87
2018-02-21T22:10:02.323Z,18.47
2018-02-21T22:12:29.774Z,28.33
2018-02-21T22:14:57.257Z,28.33
2018-02-21T22:17:24.695Z,25.37
2018-02-21T22:19:52.159Z,34.27
2018-02-21T22:22:19.604Z,42.53
2018-02-21T22:24:47.084Z,34.17
2018-02-21T22:27:14.527Z,24.60
2018-02-21T22:29:41.979Z,39.70
2018-02-21T22:32:09.455Z,30.17
2018-02-21T22:34:36.911Z,26.23
2018-02-21T22:37:04.375Z,24.23
2018-02-21T22:39:31.828Z,28.60
2018-02-21T22:41:59.282Z,28.70
2018-02-21T22:44:26.732Z,34.50
2018-02-21T22:46:54.201Z,46.10
2018-02-21T22:49:21.643Z,29.70
2018-02-21T22:51:49.214Z,25.77
2018-02-21T22:54:16.678Z,21.63
2018-02-21T22:56:44.112Z,21.77
2018-02-21T22:59:11.584Z,17.33
2018-02-21T23:01:39.043Z,19.83
2018-02-21T23:04:06.479Z,17.73
2018-02-21T23:06:33.915Z,17.20
2018-02-21T23:09:01.408Z,18.90
2018-02-21T23:11:28.852Z,14.67
2018-02-21T23:13:56.319Z,16.00
2018-02-21T23:16:23.759Z,17.00
2018-02-21T23:18:51.211Z,16.20
2018-02-21T23:21:18.688Z,15.80
2018-02-21T23:23:46.147Z,14.77
2018-02-21T23:26:13.603Z,16.00
2018-02-21T23:28:41.163Z,14.47
2018-02-21T23:31:08.593Z,16.07
2018-02-21T23:33:36.083Z,15.60
2018-02-21T23:36:03.557Z,15.70
2018-02-21T23:38:30.987Z,15.10
2018-02-21T23:40:58.448Z,15.47
2018-02-21T23:43:25.903Z,15.07
2018-02-21T23:45:53.351Z,14.60
2018-02-21T23:48:20.830Z,14.83
2018-02-21T23:50:48.276Z,13.67
2018-02-21T23:53:15.732Z,13.40
2018-02-21T23:55:43.703Z,11.90
2018-02-21T23:58:11.151Z,12.80
